createdAt,value
2023-02-04T00:01:24.774Z,49.88
2023-02-04T00:03:52.418Z,51.17
2023-02-04T00:06:19.219Z,50.55
2023-02-04T00:08:46.067Z,51.85
2023-02-04T00:11:12.904Z,49.35
2023-02-04T00:13:39.691Z,49.00
2023-02-04T00:16:06.960Z,47.58
2023-02-04T00:18:33.830Z,46.15
2023-02-04T00:21:00.677Z,46.72
2023-02-04T00:23:27.479Z,49.15
2023-02-04T00:25:54.394Z,42.30
2023-02-04T00:28:21.219Z,51.67
2023-02-04T00:30:47.961Z,48.40
2023-02-04T00:33:14.723Z,49.53
2023-02-04T00:35:41.533Z,50.63
2023-02-04T00:38:08.335Z,43.00
2023-02-04T00:40:35.211Z,44.38
2023-02-04T00:43:01.999Z,49.05
2023-02-04T00:45:28.975Z,48.65
2023-02-04T00:47:57.216Z,43.45
2023-02-04T00:50:24.404Z,54.97
2023-02-04T00:52:52.524Z,47.80
2023-02-04T00:55:19.768Z,51.65
2023-02-04T00:57:49.507Z,52.70
2023-02-04T01:00:17.589Z,53.05
2023-02-04T01:02:44.485Z,55.33
2023-02-04T01:05:11.274Z,52.28
2023-02-04T01:07:38.166Z,50.95
2023-02-04T01:10:05.422Z,48.03
2023-02-04T01:12:32.207Z,51.40
2023-02-04T01:14:59.198Z,49.85
2023-02-04T01:17:26.310Z,51.63
2023-02-04T01:19:53.096Z,50.20
2023-02-04T01:22:19.973Z,48.42
2023-02-04T01:24:46.900Z,48.53
2023-02-04T01:27:13.707Z,48.67
2023-02-04T01:29:40.466Z,52.72
2023-02-04T01:32:07.304Z,50.38
2023-02-04T01:34:34.189Z,48.33
2023-02-04T01:37:01.111Z,48.92
2023-02-04T01:39:28.067Z,46.72
2023-02-04T01:41:54.853Z,47.72
2023-02-04T01:44:21.746Z,49.05
2023-02-04T01:46:48.729Z,48.38
2023-02-04T01:49:15.614Z,49.15
2023-02-04T01:51:42.478Z,47.28
2023-02-04T01:54:12.360Z,47.88
2023-02-04T01:56:41.326Z,46.30
2023-02-04T01:59:13.844Z,42.97
2023-02-04T02:01:46.398Z,46.25
2023-02-04T02:04:20.455Z,43.63
2023-02-04T02:06:57.227Z,48.92
2023-02-04T02:09:24.687Z,48.10
2023-02-04T02:11:51.742Z,44.20
2023-02-04T02:14:18.824Z,47.65
2023-02-04T02:16:46.009Z,43.42
2023-02-04T02:19:18.118Z,44.97
2023-02-04T02:21:51.704Z,46.55
2023-02-04T02:24:26.369Z,45.95
2023-02-04T02:26:54.918Z,43.33
2023-02-04T02:29:22.643Z,42.58
2023-02-04T02:31:50.688Z,44.83
2023-02-04T02:34:17.702Z,46.72
2023-02-04T02:36:44.897Z,41.45
2023-02-04T02:39:11.995Z,40.65
2023-02-04T02:41:39.962Z,42.92
2023-02-04T02:44:07.344Z,42.33
2023-02-04T02:46:34.163Z,44.22
2023-02-04T02:49:01.372Z,40.70
2023-02-04T02:51:28.813Z,46.05
2023-02-04T02:53:55.728Z,45.08
2023-02-04T02:56:22.566Z,44.88
2023-02-04T02:58:49.452Z,46.92
2023-02-04T03:01:16.941Z,47.22
2023-02-04T03:03:48.963Z,46.88
2023-02-04T03:06:20.657Z,44.88
2023-02-04T03:08:49.589Z,44.85
2023-02-04T03:11:16.449Z,47.92
2023-02-04T03:13:43.533Z,47.05
2023-02-04T03:16:10.679Z,50.70
2023-02-04T03:18:38.440Z,50.15
2023-02-04T03:21:07.183Z,50.67
2023-02-04T03:23:36.185Z,51.05
2023-02-04T03:26:04.909Z,48.95
2023-02-04T03:28:32.322Z,43.28
2023-02-04T03:31:02.141Z,53.58
2023-02-04T03:33:31.498Z,50.30
2023-02-04T03:35:58.895Z,54.78
2023-02-04T03:38:25.861Z,54.80
2023-02-04T03:40:52.761Z,54.78
2023-02-04T03:43:19.591Z,53.60
2023-02-04T03:45:46.382Z,55.55
2023-02-04T03:48:13.468Z,58.05
2023-02-04T03:50:40.272Z,55.80
2023-02-04T03:53:07.275Z,57.30
2023-02-04T03:55:34.272Z,51.60
2023-02-04T03:58:01.081Z,54.22
2023-02-04T04:00:27.979Z,58.28
2023-02-04T04:02:54.897Z,58.60
2023-02-04T04:05:21.698Z,60.53
2023-02-04T04:07:48.622Z,60.22
2023-02-04T04:10:15.711Z,57.22
2023-02-04T04:12:42.503Z,57.60
2023-02-04T04:15:09.707Z,56.15
2023-02-04T04:17:36.601Z,62.33
2023-02-04T04:20:03.660Z,57.42
2023-02-04T04:22:30.438Z,61.97
2023-02-04T04:24:57.405Z,55.38
2023-02-04T04:27:24.594Z,58.72
2023-02-04T04:29:51.441Z,59.33
2023-02-04T04:32:18.301Z,59.80
2023-02-04T04:34:45.132Z,58.47
2023-02-04T04:37:11.962Z,60.33
2023-02-04T04:39:38.783Z,59.38
2023-02-04T04:42:05.947Z,61.38
2023-02-04T04:44:32.740Z,58.13
2023-02-04T04:46:59.695Z,60.78
2023-02-04T04:49:26.652Z,58.42
2023-02-04T04:51:53.630Z,60.92
2023-02-04T04:54:20.500Z,59.22
2023-02-04T04:56:47.306Z,63.00
2023-02-04T04:59:14.196Z,64.18
2023-02-04T05:01:40.923Z,61.53
2023-02-04T05:04:08.139Z,61.72
2023-02-04T05:06:34.896Z,62.55
2023-02-04T05:09:01.913Z,64.03
2023-02-04T05:11:28.773Z,63.10
2023-02-04T05:13:55.554Z,63.53
2023-02-04T05:16:22.455Z,63.90
2023-02-04T05:18:49.247Z,62.63
2023-02-04T05:21:16.096Z,63.60
2023-02-04T05:23:42.960Z,60.90
2023-02-04T05:26:10.472Z,61.72
2023-02-04T05:28:38.194Z,62.83
2023-02-04T05:31:05.126Z,60.58
2023-02-04T05:33:31.881Z,59.13
2023-02-04T05:35:58.641Z,63.17
2023-02-04T05:38:25.458Z,63.97
2023-02-04T05:40:52.318Z,64.32
2023-02-04T05:43:19.185Z,63.65
2023-02-04T05:45:46.019Z,62.40
2023-02-04T05:48:12.850Z,64.82
2023-02-04T05:50:39.624Z,66.72
2023-02-04T05:53:06.566Z,65.70
2023-02-04T05:55:33.422Z,62.58
2023-02-04T05:58:00.384Z,64.78
2023-02-04T06:00:27.258Z,62.33
2023-02-04T06:02:54.125Z,65.97
2023-02-04T06:05:20.962Z,67.63
2023-02-04T06:07:47.747Z,64.43
2023-02-04T06:10:14.742Z,62.53
2023-02-04T06:12:41.595Z,65.38
2023-02-04T06:15:08.848Z,66.07
2023-02-04T06:17:35.755Z,65.95
2023-02-04T06:20:02.616Z,69.82
2023-02-04T06:22:29.535Z,69.28
2023-02-04T06:24:56.478Z,66.75
2023-02-04T06:27:23.533Z,68.35
2023-02-04T06:29:51.220Z,66.85
2023-02-04T06:32:18.759Z,67.13
2023-02-04T06:34:45.964Z,71.85
2023-02-04T06:37:13.816Z,68.65
2023-02-04T06:39:41.139Z,70.78
2023-02-04T06:42:08.018Z,70.93
2023-02-04T06:44:34.866Z,70.85
2023-02-04T06:47:01.667Z,72.80
2023-02-04T06:49:28.710Z,69.68
2023-02-04T06:51:55.774Z,68.15
2023-02-04T06:54:23.333Z,69.10
2023-02-04T06:56:50.295Z,70.57
2023-02-04T06:59:17.124Z,64.45
2023-02-04T07:01:44.217Z,73.22
2023-02-04T07:04:11.299Z,67.57
2023-02-04T07:06:38.131Z,75.68
2023-02-04T07:09:04.992Z,73.70
2023-02-04T07:11:31.759Z,74.35
2023-02-04T07:13:58.526Z,73.75
2023-02-04T07:16:25.386Z,73.15
2023-02-04T07:18:52.319Z,75.65
2023-02-04T07:21:19.315Z,75.43
2023-02-04T07:23:46.195Z,91.18
2023-02-04T07:26:13.097Z,81.38
2023-02-04T07:28:41.385Z,81.65
2023-02-04T07:31:08.482Z,85.00
2023-02-04T07:33:37.998Z,81.03
2023-02-04T07:36:05.504Z,80.68
2023-02-04T07:38:32.440Z,79.82
2023-02-04T07:40:59.261Z,78.88
2023-02-04T07:43:26.445Z,82.47
2023-02-04T07:45:54.467Z,86.40
2023-02-04T07:48:22.797Z,88.07
2023-02-04T07:50:49.611Z,85.13
2023-02-04T07:53:16.476Z,82.93
2023-02-04T07:55:43.627Z,83.75
2023-02-04T07:58:10.577Z,83.20
2023-02-04T08:00:37.636Z,85.63
2023-02-04T08:03:04.988Z,86.30
2023-02-04T08:05:31.906Z,86.18
2023-02-04T08:08:01.357Z,81.70
2023-02-04T08:10:28.318Z,80.38
2023-02-04T08:12:57.567Z,89.85
2023-02-04T08:15:24.993Z,83.65
2023-02-04T08:17:52.655Z,85.07
2023-02-04T08:20:20.172Z,83.90
2023-02-04T08:22:47.268Z,82.63
2023-02-04T08:25:14.383Z,82.28
2023-02-04T08:27:41.282Z,85.05
2023-02-04T08:30:08.764Z,83.47
2023-02-04T08:32:35.666Z,82.93
2023-02-04T08:35:02.632Z,79.72
2023-02-04T08:37:29.884Z,84.22
2023-02-04T08:39:58.647Z,78.38
2023-02-04T08:42:25.669Z,81.50
2023-02-04T08:44:52.812Z,82.82
2023-02-04T08:47:19.637Z,78.93
2023-02-04T08:49:47.303Z,82.30
2023-02-04T08:52:16.169Z,82.82
2023-02-04T08:54:43.018Z,81.55
2023-02-04T08:57:09.947Z,83.97
2023-02-04T08:59:36.943Z,80.95
2023-02-04T09:02:03.972Z,83.80
2023-02-04T09:04:31.496Z,79.97
2023-02-04T09:06:58.334Z,79.95
2023-02-04T09:09:26.371Z,82.85
2023-02-04T09:11:53.374Z,83.85
2023-02-04T09:14:20.304Z,84.47
2023-02-04T09:16:49.077Z,82.43
2023-02-04T09:19:16.745Z,84.80
2023-02-04T09:21:43.648Z,81.30
2023-02-04T09:24:10.717Z,80.03
2023-02-04T09:26:37.643Z,83.45
2023-02-04T09:29:04.827Z,80.35
2023-02-04T09:31:31.746Z,80.82
2023-02-04T09:34:00.121Z,85.03
2023-02-04T09:36:30.683Z,84.90
2023-02-04T09:38:58.330Z,87.75
2023-02-04T09:41:25.214Z,94.13
2023-02-04T09:43:52.143Z,90.35
2023-02-04T09:46:22.926Z,88.25
2023-02-04T09:48:50.982Z,87.00
2023-02-04T09:51:22.901Z,80.65
2023-02-04T09:53:54.106Z,82.05
2023-02-04T09:56:21.223Z,85.57
2023-02-04T09:58:48.148Z,80.88
2023-02-04T10:01:20.224Z,83.60
2023-02-04T10:03:50.443Z,83.40
2023-02-04T10:06:22.093Z,84.13
2023-02-04T10:08:50.683Z,87.82
2023-02-04T10:11:20.439Z,89.45
2023-02-04T10:13:52.558Z,81.35
2023-02-04T10:16:32.510Z,83.20
2023-02-04T10:19:05.463Z,84.30
2023-02-04T10:21:34.776Z,84.35
2023-02-04T10:24:04.292Z,79.60
2023-02-04T10:26:33.083Z,82.10
2023-02-04T10:29:01.089Z,80.80
2023-02-04T10:34:32.812Z,82.47
2023-02-04T10:37:01.406Z,85.63
2023-02-04T10:39:29.990Z,83.40
2023-02-04T10:41:59.450Z,81.70
2023-02-04T10:44:26.267Z,85.30
2023-02-04T10:47:04.724Z,86.15
2023-02-04T10:49:33.487Z,81.90
2023-02-04T10:52:03.086Z,83.57
2023-02-04T10:54:37.793Z,82.30
2023-02-04T10:57:18.483Z,96.28
2023-02-04T10:59:48.936Z,83.05
2023-02-04T11:02:51.897Z,84.47
2023-02-04T11:05:21.670Z,80.10
2023-02-04T11:07:56.034Z,82.57
2023-02-04T11:10:34.906Z,85.10
2023-02-04T11:13:05.306Z,83.80
2023-02-04T11:15:41.621Z,83.82
2023-02-04T11:18:22.515Z,84.50
2023-02-04T11:20:50.975Z,86.28
2023-02-04T11:23:27.037Z,84.57
2023-02-04T11:26:11.245Z,83.68
2023-02-04T11:28:41.098Z,81.20
2023-02-04T11:31:24.831Z,84.95
2023-02-04T11:34:25.664Z,84.75
2023-02-04T11:37:02.282Z,83.38
2023-02-04T11:39:36.045Z,82.97
2023-02-04T11:42:04.465Z,87.03
2023-02-04T11:44:32.396Z,81.55
2023-02-04T11:47:03.256Z,83.78
2023-02-04T11:49:31.063Z,82.97
2023-02-04T11:52:14.927Z,85.18
2023-02-04T11:54:41.760Z,84.00
2023-02-04T11:57:12.584Z,82.00
2023-02-04T11:59:39.769Z,84.03
2023-02-04T12:05:13.184Z,80.60
2023-02-04T12:07:45.756Z,83.78
2023-02-04T12:10:22.091Z,83.22
2023-02-04T12:13:00.524Z,85.32
2023-02-04T12:15:36.699Z,83.10
2023-02-04T12:18:12.920Z,83.57
2023-02-04T12:20:40.480Z,84.20
2023-02-04T12:23:14.322Z,83.35
2023-02-04T12:25:41.604Z,82.05
2023-02-04T12:28:08.966Z,85.03
2023-02-04T12:30:36.816Z,84.63
2023-02-04T12:33:04.310Z,84.10
2023-02-04T12:40:41.725Z,80.63
2023-02-04T12:43:09.034Z,82.25
2023-02-04T12:45:36.259Z,83.70
2023-02-04T12:48:19.233Z,83.63
2023-02-04T12:53:29.406Z,87.07
2023-02-04T12:55:58.395Z,83.88
2023-02-04T12:58:27.674Z,85.45
2023-02-04T13:01:04.401Z,85.47
2023-02-04T13:03:41.748Z,88.82
2023-02-04T13:06:12.850Z,87.45
2023-02-04T13:08:40.714Z,87.90
2023-02-04T13:11:07.932Z,85.97
2023-02-04T13:13:35.140Z,85.20
2023-02-04T13:16:05.315Z,85.82
2023-02-04T13:21:16.303Z,83.78
2023-02-04T13:23:44.348Z,86.00
2023-02-04T13:26:12.700Z,86.53
2023-02-04T13:28:39.769Z,85.20
2023-02-04T13:31:08.051Z,87.53
2023-02-04T13:33:34.955Z,86.88
2023-02-04T13:36:01.924Z,85.38
2023-02-04T13:38:29.170Z,87.32
2023-02-04T13:40:56.287Z,89.22
2023-02-04T13:43:23.839Z,94.32
2023-02-04T13:45:50.982Z,92.63
2023-02-04T13:48:19.804Z,96.30
2023-02-04T13:50:46.729Z,96.20
2023-02-04T13:53:13.583Z,101.60
2023-02-04T13:55:41.060Z,95.22
2023-02-04T13:58:07.957Z,92.38
2023-02-04T14:00:37.355Z,92.53
2023-02-04T14:03:04.563Z,89.97
2023-02-04T14:05:31.897Z,90.75
2023-02-04T14:07:59.779Z,89.20
2023-02-04T14:10:27.277Z,91.53
2023-02-04T14:12:54.707Z,89.82
2023-02-04T14:15:21.828Z,87.85
2023-02-04T14:17:48.748Z,87.63
2023-02-04T14:20:16.434Z,88.57
2023-02-04T14:22:43.211Z,94.30
2023-02-04T14:25:11.362Z,92.55
2023-02-04T14:27:42.150Z,89.53
2023-02-04T14:30:29.128Z,86.60
2023-02-04T14:32:57.274Z,85.82
2023-02-04T14:35:24.432Z,87.65
2023-02-04T14:37:51.484Z,89.80
2023-02-04T14:40:20.250Z,88.32
2023-02-04T14:42:47.960Z,85.63
2023-02-04T14:45:15.402Z,82.57
2023-02-04T14:47:42.408Z,87.22
2023-02-04T14:50:14.537Z,84.40
2023-02-04T14:55:11.635Z,82.20
2023-02-04T15:00:20.671Z,81.97
2023-02-04T15:02:47.695Z,82.78
2023-02-04T15:05:15.631Z,82.03
2023-02-04T15:07:42.685Z,79.82
2023-02-04T15:10:13.823Z,81.15
2023-02-04T15:12:43.263Z,81.72
2023-02-04T15:15:12.148Z,79.05
2023-02-04T15:17:39.863Z,75.32
2023-02-04T15:20:10.685Z,77.53
2023-02-04T15:22:37.484Z,78.05
2023-02-04T15:25:06.040Z,71.40
2023-02-04T15:27:32.929Z,70.55
2023-02-04T15:29:59.884Z,73.25
2023-02-04T15:32:29.401Z,70.57
2023-02-04T15:34:56.336Z,69.93
2023-02-04T15:37:23.104Z,70.18
2023-02-04T15:39:52.014Z,71.72
2023-02-04T15:42:31.172Z,73.18
2023-02-04T15:47:40.183Z,75.67
2023-02-04T15:50:10.793Z,76.72
2023-02-04T15:52:38.150Z,79.22
2023-02-04T15:55:05.345Z,79.90
2023-02-04T15:57:37.006Z,83.18
2023-02-04T16:00:08.457Z,79.60
2023-02-04T16:05:17.036Z,87.25
2023-02-04T16:07:44.598Z,91.38
2023-02-04T16:10:13.669Z,91.45
2023-02-04T16:12:41.911Z,96.72
2023-02-04T16:15:11.346Z,96.47
2023-02-04T16:17:38.436Z,98.95
2023-02-04T16:20:06.928Z,101.22
2023-02-04T16:22:34.699Z,104.05
2023-02-04T16:25:01.689Z,106.18
2023-02-04T16:27:28.892Z,109.15
2023-02-04T16:29:56.914Z,115.80
2023-02-04T16:32:24.004Z,117.57
2023-02-04T16:34:52.692Z,119.78
2023-02-04T16:37:20.150Z,114.30
2023-02-04T16:39:48.221Z,117.38
2023-02-04T16:42:15.298Z,114.55
2023-02-04T16:44:42.224Z,118.35
2023-02-04T16:47:09.752Z,118.00
2023-02-04T16:49:36.825Z,118.35
2023-02-04T16:52:05.732Z,117.72
2023-02-04T16:54:34.725Z,114.53
2023-02-04T16:57:02.804Z,129.18
2023-02-04T16:59:30.918Z,129.27
2023-02-04T17:01:59.593Z,127.38
2023-02-04T17:04:27.093Z,126.63
2023-02-04T17:06:54.530Z,119.75
2023-02-04T17:09:24.573Z,115.18
2023-02-04T17:11:52.248Z,117.90
2023-02-04T17:14:22.147Z,120.00
2023-02-04T17:16:51.746Z,117.75
2023-02-04T17:19:21.369Z,117.45
2023-02-04T17:21:49.137Z,108.53
2023-02-04T17:24:16.276Z,108.70
2023-02-04T17:26:43.360Z,104.57
2023-02-04T17:29:17.237Z,100.88
2023-02-04T17:31:44.183Z,100.55
2023-02-04T17:34:11.685Z,99.90
2023-02-04T17:36:38.962Z,104.93
2023-02-04T17:39:07.723Z,108.43
2023-02-04T17:41:34.630Z,109.97
2023-02-04T17:44:03.296Z,99.18
2023-02-04T17:46:31.140Z,102.18
2023-02-04T17:48:58.830Z,106.03
2023-02-04T17:51:26.349Z,112.25
2023-02-04T17:53:56.449Z,109.75
2023-02-04T17:56:25.342Z,59.08
2023-02-04T17:58:52.222Z,32.22
2023-02-04T18:01:21.775Z,29.20
2023-02-04T18:03:49.197Z,20.75
2023-02-04T18:06:21.183Z,22.30
2023-02-04T18:08:49.734Z,24.98
2023-02-04T18:11:38.739Z,25.92
2023-02-04T18:14:28.114Z,23.38
2023-02-04T18:17:00.476Z,29.05
2023-02-04T18:19:35.459Z,32.00
2023-02-04T18:22:10.933Z,31.77
2023-02-04T18:24:43.983Z,32.10
2023-02-04T18:27:24.224Z,34.42
2023-02-04T18:29:55.545Z,31.45
2023-02-04T18:32:39.843Z,31.55
2023-02-04T18:35:53.011Z,26.35
2023-02-04T18:38:32.642Z,30.58
2023-02-04T18:41:16.477Z,29.73
2023-02-04T18:43:50.619Z,30.70
2023-02-04T18:46:27.208Z,26.90
2023-02-04T18:49:05.450Z,31.02
2023-02-04T18:51:43.864Z,28.50
2023-02-04T18:54:35.701Z,26.48
2023-02-04T18:57:16.136Z,29.35
2023-02-04T18:59:43.688Z,23.65
2023-02-04T19:02:22.472Z,27.83
2023-02-04T19:04:49.401Z,21.15
2023-02-04T19:07:16.964Z,25.15
2023-02-04T19:09:44.060Z,26.45
2023-02-04T19:12:22.741Z,25.95
2023-02-04T19:14:50.071Z,23.73
2023-02-04T19:17:22.057Z,25.55
2023-02-04T19:20:00.294Z,25.35
2023-02-04T19:22:44.992Z,25.55
2023-02-04T19:25:27.904Z,24.95
2023-02-04T19:27:57.812Z,23.42
2023-02-04T19:30:27.837Z,25.15
2023-02-04T19:33:20.315Z,24.52
2023-02-04T19:35:49.082Z,23.65
2023-02-04T19:38:38.427Z,23.92
2023-02-04T19:41:26.477Z,23.95
2023-02-04T19:44:27.121Z,21.83
2023-02-04T19:46:54.170Z,21.52
2023-02-04T19:52:41.750Z,21.95
2023-02-04T19:55:17.894Z,20.17
2023-02-04T19:57:52.962Z,19.95
2023-02-04T20:00:37.427Z,18.98
2023-02-04T20:03:17.085Z,17.92
2023-02-04T20:05:44.238Z,16.10
2023-02-04T20:08:29.797Z,17.58
2023-02-04T20:10:57.672Z,20.27
2023-02-04T20:13:26.436Z,18.40
2023-02-04T20:16:02.693Z,17.65
2023-02-04T20:18:29.639Z,18.33
2023-02-04T20:20:56.566Z,17.95
2023-02-04T20:23:32.845Z,18.65
2023-02-04T20:26:02.526Z,21.88
2023-02-04T20:28:47.635Z,22.63
2023-02-04T20:31:23.944Z,20.42
2023-02-04T20:33:56.682Z,20.67
2023-02-04T20:36:26.365Z,20.85
2023-02-04T20:39:08.616Z,18.27
2023-02-04T20:41:47.442Z,19.38
2023-02-04T20:44:20.337Z,20.40
2023-02-04T20:46:47.149Z,21.63
2023-02-04T20:49:25.894Z,19.83
2023-02-04T20:52:00.612Z,20.83
2023-02-04T20:54:31.089Z,19.75
2023-02-04T20:57:15.191Z,18.98
2023-02-04T20:59:42.962Z,16.45
2023-02-04T21:02:18.335Z,23.80
2023-02-04T21:04:54.058Z,24.55
2023-02-04T21:07:22.957Z,22.20
2023-02-04T21:09:51.683Z,24.85
2023-02-04T21:12:19.331Z,17.52
2023-02-04T21:14:46.504Z,18.23
2023-02-04T21:17:13.313Z,16.55
2023-02-04T21:19:40.132Z,20.33
2023-02-04T21:22:06.935Z,20.15
2023-02-04T21:24:34.073Z,18.52
2023-02-04T21:27:01.191Z,19.33
2023-02-04T21:29:28.138Z,20.70
2023-02-04T21:31:55.094Z,18.85
2023-02-04T21:34:22.359Z,18.33
2023-02-04T21:36:49.270Z,19.60
2023-02-04T21:39:16.157Z,18.70
2023-02-04T21:41:42.970Z,18.58
2023-02-04T21:44:09.829Z,20.70
2023-02-04T21:46:36.812Z,21.58
2023-02-04T21:49:04.981Z,21.40
2023-02-04T21:51:31.830Z,21.17
2023-02-04T21:54:00.211Z,19.33
2023-02-04T21:56:27.140Z,17.30
2023-02-04T21:58:54.338Z,23.33
2023-02-04T22:01:21.291Z,21.92
2023-02-04T22:03:48.277Z,23.45
2023-02-04T22:06:15.346Z,20.10
2023-02-04T22:08:42.188Z,19.63
2023-02-04T22:11:09.136Z,21.05
2023-02-04T22:13:54.617Z,20.05
2023-02-04T22:16:21.466Z,20.95
2023-02-04T22:18:49.584Z,21.33
2023-02-04T22:21:16.401Z,21.25
2023-02-04T22:23:43.396Z,21.15
2023-02-04T22:26:10.222Z,20.30
2023-02-04T22:28:37.043Z,25.25
2023-02-04T22:31:04.203Z,25.70
2023-02-04T22:33:31.036Z,23.08
2023-02-04T22:35:57.909Z,22.73
2023-02-04T22:38:24.759Z,20.45
2023-02-04T22:40:51.622Z,21.17
2023-02-04T22:43:18.504Z,22.88
2023-02-04T22:45:45.365Z,20.63
2023-02-04T22:48:12.198Z,21.05
2023-02-04T22:50:39.189Z,18.88
2023-02-04T22:53:06.246Z,20.13
2023-02-04T22:55:33.314Z,18.50
2023-02-04T22:58:00.283Z,17.40
2023-02-04T23:00:27.143Z,17.23
2023-02-04T23:02:54.073Z,16.08
2023-02-04T23:05:20.938Z,20.50
2023-02-04T23:07:47.774Z,21.65
2023-02-04T23:10:14.805Z,18.63
2023-02-04T23:12:41.594Z,20.30
2023-02-04T23:15:10.614Z,23.85
2023-02-04T23:17:37.332Z,22.20
2023-02-04T23:20:05.473Z,23.33
2023-02-04T23:22:32.695Z,19.75
2023-02-04T23:24:59.472Z,19.38
2023-02-04T23:27:26.382Z,15.80
2023-02-04T23:29:53.445Z,16.90
2023-02-04T23:32:20.212Z,17.08
2023-02-04T23:34:47.007Z,17.23
2023-02-04T23:37:13.780Z,16.23
2023-02-04T23:39:40.553Z,14.07
2023-02-04T23:42:07.346Z,12.57
2023-02-04T23:44:34.123Z,13.13
2023-02-04T23:47:00.994Z,11.73
2023-02-04T23:49:27.768Z,12.02
2023-02-04T23:51:54.556Z,13.75
2023-02-04T23:54:21.396Z,12.10
2023-02-04T23:56:48.290Z,12.27
2023-02-04T23:59:15.423Z,11.95
